Time;durP1;ratioP1;P1;durP2;ratioP2;P2;SDS_P1;SDS_P2;PMS_P1;PMS_P2;Temp;Humidity;BMP_temperature;BMP_pressure;BME280_temperature;BME280_humidity;BME280_pressure;Samples;Min_cycle;Max_cycle;Signal;HPM_P1;HPM_P2
2022/11/21 00:00:54;;;;;;;2.77;2.57;;;4.60;97.70;;;4.25;88.77;96928.38;5050602;28;20476;-74
2022/11/21 00:03:23;;;;;;;2.73;2.53;;;4.60;98.20;;;4.13;88.71;96929.97;5049615;28;20907;-75
2022/11/21 00:05:51;;;;;;;2.60;2.37;;;4.50;98.50;;;4.07;88.98;96912.88;5032679;28;20488;-72
2022/11/21 00:08:21;;;;;;;3.63;2.50;;;4.50;99.70;;;4.24;88.55;96941.94;5033511;28;20451;-75
2022/11/21 00:10:50;;;;;;;3.20;2.90;;;4.60;99.60;;;4.23;88.52;96934.94;5032551;28;20576;-73
2022/11/21 00:13:20;;;;;;;2.63;2.43;;;4.60;98.80;;;4.26;89.61;96934.56;5023574;28;20450;-74
2022/11/21 00:15:48;;;;;;;3.73;2.43;;;4.70;99.90;;;4.47;88.36;96944.25;5029065;28;20450;-75
2022/11/21 00:18:16;;;;;;;5.67;2.57;;;4.70;98.50;;;4.54;88.16;96933.56;5038155;28;20461;-74
2022/11/21 00:20:44;;;;;;;3.90;2.40;;;4.80;98.10;;;4.51;87.94;96929.47;5033633;28;20464;-75
2022/11/21 00:23:12;;;;;;;4.00;2.80;;;4.80;97.20;;;4.51;87.24;96924.13;5033125;28;20461;-74
2022/11/21 00:25:40;;;;;;;3.07;2.60;;;4.80;96.60;;;4.48;88.39;96926.38;5014457;28;20472;-73
2022/11/21 00:28:08;;;;;;;5.50;2.67;;;4.90;96.70;;;4.45;88.80;96913.41;5032366;28;20459;-75
2022/11/21 00:30:36;;;;;;;2.43;2.23;;;4.90;97.10;;;4.56;87.66;96923.50;5032584;28;20492;-75
2022/11/21 00:33:04;;;;;;;2.47;2.27;;;4.90;97.00;;;4.64;87.64;96914.47;5048061;28;20544;-74
2022/11/21 00:35:31;;;;;;;2.87;2.67;;;4.90;96.50;;;4.60;87.53;96918.56;5032346;28;20453;-73
2022/11/21 00:37:58;;;;;;;3.40;2.17;;;4.90;96.60;;;4.53;87.31;96918.53;5025459;28;20519;-75
2022/11/21 00:40:26;;;;;;;5.10;2.33;;;4.80;97.20;;;4.65;86.96;96918.78;5029683;28;20816;-73
2022/11/21 00:42:53;;;;;;;3.77;2.30;;;4.90;97.50;;;4.56;88.06;96912.81;5044936;28;20516;-74
2022/11/21 00:45:22;;;;;;;3.03;2.43;;;4.90;96.60;;;4.76;87.30;96920.81;5045046;28;20454;-75
2022/11/21 00:47:49;;;;;;;3.70;2.00;;;5.00;96.50;;;4.75;86.74;96919.19;5029177;28;20522;-74
2022/11/21 00:50:18;;;;;;;5.50;2.20;;;5.00;96.00;;;4.76;86.60;96912.81;5032714;28;20473;-74
2022/11/21 00:52:45;;;;;;;3.07;2.20;;;5.10;95.90;;;4.35;86.60;96861.13;5033230;28;20512;-77
2022/11/21 00:55:12;;;;;;;2.30;2.13;;;5.10;95.40;;;4.92;86.34;96913.41;5045400;28;20453;-72
2022/11/21 00:57:39;;;;;;;3.20;2.23;;;5.10;95.20;;;5.01;85.40;96911.38;5030908;28;21143;-73
2022/11/21 01:00:08;;;;;;;2.63;2.43;;;5.20;95.20;;;4.86;86.01;96914.25;5044971;28;20446;-74
2022/11/21 01:02:37;;;;;;;2.57;2.37;;;5.20;95.00;;;4.87;86.91;96910.53;5031966;28;20469;-73
2022/11/21 01:05:08;;;;;;;3.27;2.13;;;5.10;95.50;;;5.03;85.99;96909.31;5024664;28;20983;-73
2022/11/21 01:07:35;;;;;;;3.87;2.20;;;5.20;94.80;;;5.06;85.15;96907.03;5031538;28;20512;-72
2022/11/21 01:10:02;;;;;;;3.40;1.97;;;5.30;95.00;;;4.93;86.42;96899.03;5029271;28;20825;-73
2022/11/21 01:12:31;;;;;;;4.20;2.60;;;5.30;94.30;;;5.04;85.19;96895.72;5032199;28;20461;-74
2022/11/21 01:14:58;;;;;;;2.90;2.30;;;5.30;94.40;;;5.08;85.86;96896.13;5046451;28;20484;-74
2022/11/21 01:17:25;;;;;;;5.50;2.10;;;5.30;94.40;;;5.02;85.16;96896.97;5031974;28;20966;-75
2022/11/21 01:19:54;;;;;;;5.10;2.43;;;5.30;93.80;;;5.05;85.07;96883.97;5031198;28;20438;-73
2022/11/21 01:22:21;;;;;;;2.70;2.00;;;5.40;93.80;;;5.17;83.86;96891.38;5032054;28;20937;-74
2022/11/21 01:24:49;;;;;;;3.20;1.70;;;5.40;92.70;;;5.11;83.96;96895.69;5045224;28;21014;-74
2022/11/21 01:27:16;;;;;;;6.77;2.10;;;5.50;92.90;;;5.15;84.69;96901.47;5018622;28;20454;-74
2022/11/21 01:29:43;;;;;;;5.17;2.13;;;5.40;92.70;;;5.17;84.27;96902.09;5032333;28;20481;-74
2022/11/21 01:32:10;;;;;;;4.03;2.47;;;5.40;93.10;;;5.28;83.05;96887.22;5047229;28;20453;-74
2022/11/21 01:34:37;;;;;;;5.40;2.10;;;5.50;92.30;;;4.97;83.76;96842.16;5041229;28;20451;-71
2022/11/21 01:37:06;;;;;;;3.87;1.90;;;5.50;92.30;;;5.34;83.07;96889.88;5047116;28;20446;-75
2022/11/21 01:39:33;;;;;;;2.63;1.57;;;5.60;91.90;;;5.34;83.49;96892.56;5048638;28;20459;-72
2022/11/21 01:42:01;;;;;;;2.00;1.80;;;5.60;91.70;;;5.42;83.09;96898.75;5034944;28;20521;-74
2022/11/21 01:44:48;;;;;;;4.97;1.90;;;5.60;92.10;;;5.50;83.15;96899.34;5030732;28;20496;-77
2022/11/21 01:47:17;;;;;;;5.80;1.80;;;5.70;92.40;;;5.38;83.67;96896.50;5039180;28;20459;-75
2022/11/21 01:49:45;;;;;;;4.47;1.80;;;5.70;92.30;;;5.36;84.12;96898.53;5030329;28;20486;-72
2022/11/21 01:52:19;;;;;;;6.87;2.50;;;5.60;93.00;;;5.24;84.51;96895.69;5045185;28;20453;-76
2022/11/21 01:54:51;;;;;;;5.00;1.80;;;5.60;93.00;;;5.27;84.39;96888.25;5028497;28;20462;-75
2022/11/21 01:57:24;;;;;;;2.57;1.73;;;5.50;93.30;;;5.25;84.56;96891.16;5031271;28;20454;-76
2022/11/21 01:59:57;;;;;;;5.70;1.77;;;5.60;93.60;;;5.22;84.95;96891.56;5031316;28;20458;-74
2022/11/21 02:02:28;;;;;;;2.20;1.80;;;5.50;93.70;;;5.29;84.79;96891.56;5022394;28;21744;-74
2022/11/21 02:04:56;;;;;;;2.77;1.63;;;5.50;93.80;;;5.29;85.31;96878.16;5028157;28;21142;-77
2022/11/21 02:07:28;;;;;;;3.10;1.73;;;5.50;93.80;;;5.32;84.45;96889.28;5031748;28;20478;-77
2022/11/21 02:09:59;;;;;;;5.63;1.93;;;5.50;93.60;;;5.43;84.13;96887.81;5045830;28;20474;-77
2022/11/21 02:12:37;;;;;;;5.27;2.03;;;5.50;93.80;;;5.23;85.41;96887.84;5030599;28;20465;-77
2022/11/21 02:15:06;;;;;;;1.83;1.73;;;5.50;94.00;;;5.31;84.89;96890.31;5030860;28;20552;-74
2022/11/21 02:17:33;;;;;;;3.67;1.93;;;5.50;94.00;;;5.12;85.21;96885.81;5029726;28;21006;-75
2022/11/21 02:20:04;;;;;;;2.30;1.70;;;5.50;94.20;;;5.10;85.73;96884.19;5031511;28;20454;-75
2022/11/21 02:22:44;;;;;;;2.23;2.03;;;5.50;94.40;;;5.23;85.12;96894.03;5029364;28;20519;-76
2022/11/21 02:25:18;;;;;;;4.40;1.97;;;5.50;94.50;;;5.17;85.47;96891.38;5029576;28;20474;-76
2022/11/21 02:27:45;;;;;;;4.80;1.47;;;5.50;94.20;;;5.19;85.72;96894.66;5016492;28;20549;-75
2022/11/21 02:30:13;;;;;;;3.80;1.83;;;5.50;94.60;;;5.21;86.03;96884.56;5018047;28;20484;-74
2022/11/21 02:32:45;;;;;;;2.43;2.00;;;5.50;94.30;;;4.78;85.28;96814.44;5030029;28;20461;-75
2022/11/21 02:35:13;;;;;;;2.20;1.20;;;5.50;94.50;;;5.17;85.42;96880.66;5029890;28;20448;-74
2022/11/21 02:37:43;;;;;;;9.23;2.50;;;5.50;94.50;;;5.18;85.12;96868.91;5033132;28;20918;-76
2022/11/21 02:40:17;;;;;;;3.23;1.67;;;5.50;94.20;;;5.19;86.36;96882.09;5031679;28;20455;-73
2022/11/21 02:42:53;;;;;;;4.20;1.50;;;5.50;95.10;;;5.16;86.19;96887.06;5027821;28;20552;-75
2022/11/21 02:45:28;;;;;;;5.57;1.60;;;5.40;95.20;;;5.06;86.52;96876.78;5027854;28;20465;-75
2022/11/21 02:47:56;;;;;;;2.83;1.60;;;5.40;95.70;;;4.82;87.81;96873.69;5046341;28;20957;-73
2022/11/21 02:50:28;;;;;;;2.50;1.60;;;5.30;96.20;;;4.95;87.35;96872.88;5032392;28;20887;-75
2022/11/21 02:52:56;;;;;;;4.03;1.60;;;5.30;97.10;;;4.56;87.26;96807.63;5045038;28;20458;-77
2022/11/21 02:55:26;;;;;;;5.40;2.03;;;5.20;97.00;;;4.84;88.28;96868.13;5045059;28;20453;-78
2022/11/21 02:57:54;;;;;;;4.50;1.73;;;5.20;97.20;;;4.82;88.38;96866.50;5045243;28;20504;-77
2022/11/21 03:00:22;;;;;;;5.47;1.40;;;5.20;97.50;;;4.91;88.21;96875.13;5029044;28;20553;-76
2022/11/21 03:02:49;;;;;;;3.00;1.37;;;5.20;97.40;;;5.02;87.38;96873.69;5044641;28;20463;-76
2022/11/21 03:05:19;;;;;;;2.83;1.47;;;5.20;97.20;;;4.94;86.90;96849.81;5028337;28;20461;-76
2022/11/21 03:07:47;;;;;;;2.87;1.30;;;5.30;97.10;;;5.05;86.77;96864.41;5029912;28;20465;-73
2022/11/21 03:10:15;;;;;;;2.50;1.67;;;5.20;97.20;;;5.13;86.83;96876.75;5029000;28;20559;-75
2022/11/21 03:12:44;;;;;;;2.20;1.00;;;5.20;97.10;;;4.61;87.05;96794.44;5031301;28;20531;-76
2022/11/21 03:15:15;;;;;;;1.80;1.20;;;5.30;97.80;;;4.95;87.43;96871.00;5027781;28;20505;-77
2022/11/21 03:17:42;;;;;;;2.07;1.33;;;5.20;97.70;;;5.12;87.52;96877.78;5025742;28;20468;-76
2022/11/21 03:20:11;;;;;;;3.80;1.63;;;5.20;99.20;;;5.06;87.99;96877.56;5026114;28;20460;-76
2022/11/21 03:22:38;;;;;;;4.63;1.60;;;5.20;99.90;;;4.89;89.07;96877.19;5022808;28;20462;-73
2022/11/21 03:25:06;;;;;;;3.77;1.53;;;5.20;99.90;;;4.92;88.54;96867.91;5039879;28;20489;-76
2022/11/21 03:27:33;;;;;;;1.40;1.10;;;5.20;99.90;;;4.78;89.34;96867.94;5024555;28;20458;-75
2022/11/21 03:30:02;;;;;;;2.03;1.30;;;5.10;99.90;;;4.86;89.28;96855.38;5026357;28;21344;-74
2022/11/21 03:32:29;;;;;;;2.87;1.60;;;5.10;99.90;;;4.71;89.37;96861.75;5039675;28;20465;-74
2022/11/21 03:34:56;;;;;;;1.90;1.50;;;5.10;99.90;;;4.66;89.69;96864.25;5036429;28;20953;-76
2022/11/21 03:37:23;;;;;;;4.23;1.50;;;5.00;99.90;;;4.76;89.08;96853.94;5028166;28;20458;-72
2022/11/21 03:39:50;;;;;;;3.00;1.60;;;5.00;99.90;;;4.81;88.91;96851.47;5043227;28;20493;-77
2022/11/21 03:42:18;;;;;;;1.43;1.20;;;5.10;99.90;;;4.79;89.06;96842.84;5023724;28;20470;-75
2022/11/21 03:44:45;;;;;;;3.10;1.80;;;5.10;99.90;;;4.90;89.24;96837.84;5024256;28;20461;-76
2022/11/21 03:47:14;;;;;;;2.20;1.67;;;5.10;99.90;;;4.66;90.39;96850.88;5023773;28;20458;-71
2022/11/21 03:49:41;;;;;;;1.93;1.67;;;5.00;99.90;;;4.71;89.29;96848.38;5038912;28;20873;-76
2022/11/21 03:52:08;;;;;;;5.53;2.10;;;5.00;99.90;;;4.60;90.55;96843.63;5041388;28;20461;-75
2022/11/21 03:54:35;;;;;;;1.67;1.57;;;5.00;99.90;;;4.75;89.63;96838.09;5041304;28;21056;-77
2022/11/21 03:57:02;;;;;;;2.67;1.80;;;5.00;99.90;;;4.81;88.70;96842.59;5040576;28;20465;-76
2022/11/21 03:59:29;;;;;;;4.13;1.83;;;5.10;99.90;;;4.89;89.01;96852.28;5021807;28;21024;-75
2022/11/21 04:01:57;;;;;;;6.10;1.67;;;5.10;99.90;;;4.77;89.11;96842.19;5016123;28;20460;-75
2022/11/21 04:04:25;;;;;;;2.40;1.73;;;5.10;99.40;;;4.80;88.17;96846.31;5026363;28;20454;-76
2022/11/21 04:06:52;;;;;;;6.03;1.80;;;5.10;98.30;;;4.91;87.48;96829.63;5024470;28;20463;-74
2022/11/21 04:09:20;;;;;;;1.63;1.40;;;5.20;97.70;;;5.06;87.71;96840.09;5025013;28;20476;-74
2022/11/21 04:11:47;;;;;;;4.53;1.60;;;5.20;97.40;;;4.95;86.90;96840.75;5040110;28;20534;-76
2022/11/21 04:14:14;;;;;;;2.87;1.37;;;5.20;97.00;;;4.88;87.45;96837.25;5026366;28;20810;-75
2022/11/21 04:16:42;;;;;;;3.97;1.60;;;5.20;96.70;;;4.97;87.52;96844.03;5029553;28;20454;-76
2022/11/21 04:19:09;;;;;;;3.07;1.87;;;5.20;97.00;;;5.04;87.08;96834.13;5030420;28;20504;-71
2022/11/21 04:21:37;;;;;;;4.30;1.90;;;5.20;96.80;;;4.98;87.01;96829.63;5028611;28;20454;-73
2022/11/21 04:24:06;;;;;;;3.23;1.93;;;5.20;96.20;;;5.10;86.49;96827.97;5053735;28;20471;-72
2022/11/21 04:26:33;;;;;;;3.10;1.83;;;5.30;96.00;;;5.12;86.58;96833.09;5046544;28;20438;-72
2022/11/21 04:29:00;;;;;;;5.27;2.63;;;5.30;95.00;;;5.20;85.99;96834.72;5047529;28;20450;-71
2022/11/21 04:31:27;;;;;;;5.87;2.30;;;5.40;95.30;;;4.49;86.23;96760.31;5047531;28;20462;-71
2022/11/21 04:33:54;;;;;;;4.23;1.50;;;5.30;94.70;;;5.09;86.30;96829.00;5029458;28;20458;-72
2022/11/21 04:36:22;;;;;;;4.17;1.77;;;5.40;94.90;;;5.18;86.01;96832.25;5014447;28;21285;-77
2022/11/21 04:38:50;;;;;;;5.57;1.67;;;5.40;95.10;;;5.08;85.54;96822.00;5008262;28;20505;-77
2022/11/21 04:41:17;;;;;;;4.13;1.63;;;5.40;94.70;;;5.15;85.32;96826.50;5017982;28;20960;-74
2022/11/21 04:43:44;;;;;;;4.00;1.63;;;5.40;94.50;;;5.16;84.91;96828.13;5026743;28;20877;-73
2022/11/21 04:46:11;;;;;;;3.30;1.33;;;5.40;93.80;;;5.02;85.65;96830.84;5031352;28;20929;-76
2022/11/21 04:48:39;;;;;;;3.90;1.50;;;5.40;94.40;;;5.10;84.39;96827.13;5048635;28;20442;-75
2022/11/21 04:51:06;;;;;;;2.87;1.53;;;5.40;93.60;;;5.07;84.12;96820.31;5046883;28;20922;-75
2022/11/21 04:53:33;;;;;;;2.97;1.20;;;5.40;92.90;;;5.07;84.13;96831.03;5047326;28;20461;-75
2022/11/21 04:56:04;;;;;;;6.40;1.60;;;5.40;93.00;;;5.02;84.31;96822.81;5031466;28;20533;-75
2022/11/21 04:58:31;;;;;;;4.50;1.60;;;5.40;92.70;;;5.19;83.85;96833.06;5028448;28;20512;-75
2022/11/21 05:01:05;;;;;;;5.23;1.40;;;5.50;92.90;;;4.86;84.68;96808.03;5013585;28;20435;-74
2022/11/21 05:03:32;;;;;;;5.33;1.50;;;5.40;92.80;;;5.16;84.82;96833.50;5017306;28;20532;-74
2022/11/21 05:05:59;;;;;;;4.77;1.83;;;5.40;93.30;;;5.05;84.15;96833.09;5029687;28;20580;-74
2022/11/21 05:08:27;;;;;;;5.23;1.73;;;5.40;92.80;;;4.94;84.61;96820.38;5031825;28;20455;-73
2022/11/21 05:13:40;;;;;;;2.67;1.20;;;5.40;92.80;;;5.09;83.87;96820.13;5032959;28;20519;-71
2022/11/21 05:16:08;;;;;;;3.00;1.40;;;5.40;92.70;;;5.08;84.32;96815.81;5045990;28;20485;-75
2022/11/21 05:18:34;;;;;;;1.77;1.07;;;5.40;92.50;;;5.09;84.09;96814.75;5047074;28;20519;-73
2022/11/21 05:21:02;;;;;;;1.60;1.37;;;5.30;92.60;;;4.94;83.91;96799.75;5028902;28;20511;-75
2022/11/21 05:23:30;;;;;;;3.27;1.10;;;5.30;92.60;;;4.57;84.53;96761.13;5046232;28;20486;-76
2022/11/21 05:25:57;;;;;;;2.30;1.30;;;5.30;93.30;;;4.90;84.47;96811.94;5027470;28;20562;-74
2022/11/21 05:28:24;;;;;;;3.50;1.10;;;5.30;92.80;;;4.86;85.18;96816.06;5044877;28;20802;-75
2022/11/21 05:30:53;;;;;;;2.60;1.00;;;5.20;93.30;;;4.81;84.96;96800.63;5029488;28;20509;-75
2022/11/21 05:33:20;;;;;;;1.90;1.07;;;5.20;93.30;;;4.89;84.69;96822.84;5027303;28;20550;-76
2022/11/21 05:35:47;;;;;;;2.23;1.37;;;5.20;92.70;;;4.92;84.39;96817.06;5013733;28;20459;-75
2022/11/21 05:38:14;;;;;;;1.60;1.50;;;5.20;92.80;;;4.77;84.46;96807.41;5011246;28;20462;-70
2022/11/21 05:40:41;;;;;;;5.03;1.40;;;5.10;92.80;;;5.04;83.69;96838.69;5038487;28;20469;-69
2022/11/21 05:45:57;;;;;;;1.33;1.00;;;5.20;92.30;;;4.85;83.79;96829.63;5045979;28;20518;-70
2022/11/21 05:48:25;;;;;;;2.53;1.40;;;5.20;91.90;;;4.98;82.60;96834.97;5043738;28;20485;-69
2022/11/21 05:50:52;;;;;;;1.37;1.20;;;5.20;91.40;;;4.90;83.21;96833.34;5031005;28;20542;-70
2022/11/21 05:53:19;;;;;;;1.63;1.40;;;5.20;91.40;;;4.88;83.03;96842.59;5045536;28;20477;-70
2022/11/21 05:55:47;;;;;;;1.70;1.57;;;5.10;91.80;;;4.84;83.02;96836.84;5028256;28;20475;-71
2022/11/21 05:58:14;;;;;;;3.03;1.37;;;5.10;91.40;;;4.82;83.08;96847.75;5021330;28;21150;-69
2022/11/21 06:00:41;;;;;;;2.50;2.00;;;5.00;91.90;;;4.76;82.82;96840.53;5028222;28;20937;-69
2022/11/21 06:03:29;;;;;;;2.40;1.30;;;4.90;92.40;;;4.66;83.13;96848.19;5027847;28;20453;-69
2022/11/21 06:06:02;;;;;;;2.80;1.20;;;4.90;92.00;;;4.58;83.93;96848.38;5029610;28;20461;-68
2022/11/21 06:08:32;;;;;;;1.47;1.27;;;4.80;92.20;;;4.59;82.73;96844.66;5038517;28;20482;-69
2022/11/21 06:10:59;;;;;;;1.30;1.10;;;4.80;92.00;;;4.57;83.26;96844.91;5028564;28;20489;-70
2022/11/21 06:13:27;;;;;;;2.00;1.20;;;4.80;92.50;;;4.39;83.25;96824.09;5029359;28;20489;-69
2022/11/21 06:15:59;;;;;;;2.60;0.90;;;4.70;92.70;;;4.39;84.23;96840.97;5028981;28;20457;-69
2022/11/21 06:18:29;;;;;;;1.90;1.20;;;4.70;93.30;;;3.99;84.84;96787.47;5044445;28;20460;-69
2022/11/21 06:21:02;;;;;;;1.00;0.93;;;4.60;93.90;;;4.26;85.36;96830.28;5027579;28;20554;-72
2022/11/21 06:23:29;;;;;;;1.50;1.30;;;4.50;94.50;;;4.32;84.35;96853.50;5043223;28;20570;-69
2022/11/21 06:25:57;;;;;;;1.23;1.07;;;4.50;94.10;;;4.33;85.83;96846.31;5025692;28;20936;-70
2022/11/21 06:28:26;;;;;;;3.03;1.57;;;4.60;94.10;;;4.54;85.43;96864.00;5025573;28;20465;-69
2022/11/21 06:30:53;;;;;;;4.60;1.60;;;4.70;95.40;;;4.85;85.33;96851.84;5023564;28;21058;-70
2022/11/21 06:33:21;;;;;;;1.33;0.97;;;4.90;95.40;;;4.77;83.72;96852.91;5022661;28;20864;-71
2022/11/21 06:35:49;;;;;;;1.70;1.20;;;5.00;92.90;;;4.52;83.86;96858.88;5022822;28;20462;-73
2022/11/21 06:38:18;;;;;;;1.73;1.60;;;4.90;92.10;;;4.73;84.34;96854.34;5035207;28;20453;-76
2022/11/21 06:40:46;;;;;;;3.20;2.10;;;5.00;93.20;;;4.76;84.75;96859.28;5023597;28;20457;-71
2022/11/21 06:43:13;;;;;;;3.63;2.27;;;5.00;92.60;;;5.04;84.23;96855.53;5030689;28;20453;-79
2022/11/21 06:45:44;;;;;;;1.97;1.40;;;5.20;93.90;;;4.86;83.66;96847.34;5023551;28;20465;-72
2022/11/21 06:48:11;;;;;;;9.60;3.00;;;5.10;92.30;;;4.92;83.78;96870.59;5004698;28;20877;-71
2022/11/21 06:50:38;;;;;;;3.10;1.80;;;5.20;92.40;;;4.96;83.00;96869.16;5028648;28;20928;-71
2022/11/21 06:53:07;;;;;;;1.50;1.40;;;5.20;91.80;;;4.76;83.27;96877.19;5041411;28;20511;-71
2022/11/21 06:55:34;;;;;;;1.50;1.40;;;5.10;91.90;;;4.95;83.01;96875.56;5021462;28;20469;-71
2022/11/21 06:58:02;;;;;;;2.30;1.80;;;5.10;92.10;;;4.75;84.11;96865.66;5017950;28;20601;-78
2022/11/21 07:00:29;;;;;;;3.37;1.30;;;5.10;91.90;;;4.88;83.90;96869.38;5024570;28;20469;-71
2022/11/21 07:03:01;;;;;;;3.53;1.60;;;5.10;92.20;;;4.33;83.90;96803.53;5024444;28;20507;-68
2022/11/21 07:05:29;;;;;;;1.77;1.60;;;5.00;92.10;;;4.82;83.79;96869.16;5026854;28;20813;-68
2022/11/21 07:08:00;;;;;;;1.80;1.33;;;5.10;92.50;;;4.76;83.26;96872.66;5030312;28;20458;-69
2022/11/21 07:10:30;;;;;;;2.83;2.10;;;5.10;92.10;;;4.91;83.43;96866.28;5026348;28;20944;-73
2022/11/21 07:15:45;;;;;;;3.03;1.70;;;5.10;93.40;;;4.72;83.86;96876.78;5014933;28;20614;-68
2022/11/21 07:18:12;;;;;;;4.83;1.93;;;5.10;92.00;;;4.92;83.72;96875.94;5035850;28;20466;-67
2022/11/21 07:20:41;;;;;;;3.50;1.67;;;5.10;93.20;;;4.72;84.81;96815.25;5020265;28;20460;-69
2022/11/21 07:23:09;;;;;;;5.00;1.60;;;5.20;94.10;;;4.92;83.52;96873.25;5025835;28;20453;-69
2022/11/21 07:25:38;;;;;;;4.30;2.70;;;5.20;92.60;;;5.05;84.46;96875.13;5026001;28;20456;-70
2022/11/21 07:28:07;;;;;;;2.47;1.27;;;5.20;93.30;;;5.03;83.23;96880.69;5035586;28;20453;-69
2022/11/21 07:30:35;;;;;;;2.67;2.33;;;5.20;92.20;;;5.22;83.02;96886.19;5018057;28;20484;-70
2022/11/21 07:33:05;;;;;;;2.80;2.17;;;5.30;93.30;;;5.05;83.53;96875.94;5018015;28;20564;-67
2022/11/21 07:35:33;;;;;;;2.33;1.77;;;5.30;92.10;;;5.02;83.18;96886.25;5020100;28;20458;-70
2022/11/21 07:38:01;;;;;;;2.53;2.00;;;5.30;92.00;;;5.14;83.58;96884.56;5022876;28;20984;-70
2022/11/21 07:40:29;;;;;;;3.37;2.00;;;5.30;92.20;;;5.06;82.44;96880.25;5038242;28;20465;-69
2022/11/21 07:43:02;;;;;;;2.87;2.07;;;5.30;91.90;;;4.81;83.31;96880.06;5018905;28;20455;-68
2022/11/21 07:45:30;;;;;;;3.57;2.50;;;5.10;92.20;;;4.97;84.03;96884.19;5017395;28;20477;-70
2022/11/21 07:48:01;;;;;;;2.40;2.00;;;5.10;93.70;;;4.68;84.59;96879.03;5019934;28;20463;-73
2022/11/21 07:50:29;;;;;;;2.40;2.20;;;5.00;92.80;;;4.57;85.03;96873.50;5034353;28;20479;-71
2022/11/21 07:53:02;;;;;;;4.50;2.13;;;4.90;93.60;;;4.87;83.60;96889.97;5011692;28;20457;-68
2022/11/21 07:55:30;;;;;;;3.37;1.97;;;4.90;93.90;;;4.80;83.96;96876.59;5025661;28;22208;-69
2022/11/21 07:58:00;;;;;;;2.43;1.90;;;5.00;92.90;;;4.99;83.98;96883.97;5011354;28;20464;-71
2022/11/21 08:00:29;;;;;;;5.53;2.60;;;5.10;93.20;;;5.16;83.02;96887.06;5014401;28;21367;-68
2022/11/21 08:02:58;;;;;;;3.20;2.83;;;5.30;92.40;;;5.29;82.21;96887.03;5011915;28;20825;-68
2022/11/21 08:05:25;;;;;;;2.63;2.03;;;5.50;91.90;;;5.58;80.82;96892.09;5015932;28;20453;-71
2022/11/21 08:07:54;;;;;;;6.13;2.40;;;5.70;91.20;;;5.63;81.01;96887.75;5015887;28;20465;-69
2022/11/21 08:10:21;;;;;;;3.77;2.43;;;5.80;90.80;;;5.50;81.32;96896.66;5032068;28;20465;-69
2022/11/21 08:12:48;;;;;;;4.03;2.70;;;5.70;90.80;;;5.42;81.90;96890.72;5017459;28;20950;-69
2022/11/21 08:15:17;;;;;;;3.90;2.80;;;5.60;90.80;;;5.20;82.46;96885.59;5020738;28;20938;-68
2022/11/21 08:17:44;;;;;;;7.10;2.63;;;5.50;90.90;;;5.13;82.44;96884.78;5014124;28;20459;-70
2022/11/21 08:20:12;;;;;;;4.50;2.97;;;5.40;91.60;;;5.16;82.59;96887.06;5015879;28;20469;-69
2022/11/21 08:22:39;;;;;;;4.60;3.83;;;5.30;92.20;;;5.08;83.19;96890.78;5024631;28;20473;-68
2022/11/21 08:25:09;;;;;;;6.57;3.10;;;5.40;92.60;;;5.20;82.91;96893.63;5040332;28;20529;-70
2022/11/21 08:27:37;;;;;;;11.23;3.30;;;5.40;91.90;;;5.07;83.42;96892.59;5023246;28;20469;-68
2022/11/21 08:30:06;;;;;;;6.77;3.00;;;5.40;91.90;;;5.08;83.72;96894.28;5019271;28;20468;-69
2022/11/21 08:32:35;;;;;;;3.87;3.30;;;5.40;92.00;;;5.22;83.15;96892.41;5019615;28;20466;-69
2022/11/21 08:35:02;;;;;;;4.30;3.20;;;5.40;92.40;;;5.27;83.09;96897.13;5017969;28;20556;-76
2022/11/21 08:37:29;;;;;;;2.70;2.50;;;5.40;92.10;;;5.26;83.09;96898.16;5039008;28;21354;-71
2022/11/21 08:39:59;;;;;;;3.80;3.20;;;5.40;92.20;;;5.35;82.63;96890.72;5036099;28;20519;-69
2022/11/21 08:42:26;;;;;;;4.30;3.43;;;5.50;92.00;;;5.19;82.17;96843.78;5014998;28;20618;-77
2022/11/21 08:44:54;;;;;;;4.17;2.60;;;5.60;92.10;;;5.35;82.62;96902.25;5015232;28;20453;-68
2022/11/21 08:47:21;;;;;;;4.60;3.00;;;5.60;91.50;;;5.59;82.44;96897.25;5033433;28;20515;-69
2022/11/21 08:49:49;;;;;;;4.30;3.00;;;5.70;91.70;;;5.72;81.79;96891.00;5020223;28;20522;-70
2022/11/21 08:52:17;;;;;;;4.73;3.20;;;5.80;91.50;;;5.72;80.91;96895.56;5021623;28;20512;-70
2022/11/21 08:54:45;;;;;;;6.47;2.77;;;5.90;90.80;;;5.67;80.48;96891.66;5020489;28;20479;-69
2022/11/21 08:57:13;;;;;;;3.70;2.70;;;6.00;90.40;;;5.78;80.92;96900.91;5028400;28;20461;-70
2022/11/21 08:59:40;;;;;;;2.73;2.20;;;6.00;90.20;;;5.72;81.00;96895.56;5020433;28;21201;-70
2022/11/21 09:02:11;;;;;;;2.20;2.00;;;6.00;90.10;;;5.81;80.26;96888.91;5020280;28;20456;-70
2022/11/21 09:04:39;;;;;;;2.53;2.30;;;6.10;89.80;;;5.91;79.78;96901.88;5023429;28;20550;-70
2022/11/21 09:07:07;;;;;;;3.33;1.90;;;6.10;89.80;;;5.87;79.39;96906.00;5019975;28;20465;-72
2022/11/21 09:09:35;;;;;;;3.27;1.70;;;6.20;88.20;;;5.91;79.18;96899.19;5023781;28;20462;-70
2022/11/21 09:12:02;;;;;;;5.00;3.83;;;6.30;87.50;;;5.97;78.94;96901.03;5022435;28;20481;-70
2022/11/21 09:19:59;;;;;;;3.43;1.70;;;6.70;86.50;;;6.54;76.15;96907.56;5038580;28;20452;-69
2022/11/21 09:22:28;;;;;;;4.17;2.07;;;6.80;85.00;;;6.61;76.82;96906.47;5023141;28;20485;-70
2022/11/21 09:24:55;;;;;;;2.80;1.40;;;6.80;85.40;;;6.59;75.80;96907.72;5021707;28;20477;-71
2022/11/21 09:27:22;;;;;;;2.63;1.93;;;6.90;84.50;;;6.70;76.02;96900.84;5019955;28;20454;-71
2022/11/21 09:29:49;;;;;;;3.07;1.70;;;7.00;84.50;;;6.86;75.39;96907.53;5020657;28;20458;-69
2022/11/21 09:32:16;;;;;;;2.00;1.60;;;7.10;84.00;;;6.88;74.41;96905.44;5033847;28;20544;-71
2022/11/21 09:34:44;;;;;;;4.17;2.40;;;7.20;83.90;;;7.14;74.31;96900.88;5020519;28;20473;-70
2022/11/21 09:37:11;;;;;;;3.10;1.83;;;7.30;84.00;;;7.22;73.31;96914.06;5023194;28;20463;-70
2022/11/21 09:39:39;;;;;;;3.20;2.10;;;7.30;83.40;;;7.32;72.79;96908.97;5038113;28;20548;-69
2022/11/21 09:42:48;;;;;;;2.87;1.70;;;7.50;82.90;;;7.55;72.17;96907.53;5036662;28;21126;-68
2022/11/21 09:45:19;;;;;;;5.10;2.23;;;7.70;82.70;;;7.16;72.82;96899.63;5036987;28;20954;-69
2022/11/21 09:47:49;;;;;;;3.57;1.97;;;7.60;82.20;;;7.35;73.59;96905.88;5018223;28;21006;-69
2022/11/21 09:50:31;;;;;;;2.63;2.40;;;7.60;82.60;;;8.12;71.64;96901.06;5031656;28;20463;-71
2022/11/21 09:53:05;;;;;;;2.57;2.00;;;8.00;82.90;;;7.98;70.18;96913.03;5017903;28;20490;-70
2022/11/21 09:55:42;;;;;;;2.83;1.77;;;8.20;81.50;;;7.90;70.59;96912.28;5017565;28;20458;-71
2022/11/21 09:58:20;;;;;;;2.53;1.80;;;8.20;80.90;;;7.71;70.32;96916.03;5012847;28;20465;-71
2022/11/21 10:00:51;;;;;;;2.23;1.80;;;8.10;80.60;;;7.67;70.28;96930.97;5031503;28;21010;-70
2022/11/21 10:03:21;;;;;;;2.50;2.10;;;8.00;80.60;;;7.77;70.40;96912.44;5034861;28;20465;-70
2022/11/21 10:05:54;;;;;;;4.20;1.80;;;8.00;80.90;;;7.99;70.18;96917.38;5035841;28;20519;-71
2022/11/21 10:08:36;;;;;;;2.88;1.92;;;8.10;81.20;;;7.87;70.55;96915.44;5037987;28;20465;-72
2022/11/21 10:11:18;;;;;;;3.37;2.57;;;8.20;80.70;;;7.92;70.13;96917.47;5024717;28;20195;-72
2022/11/21 10:14:01;;;;;;;4.43;2.10;;;8.20;80.60;;;7.76;70.44;96908.13;5037840;28;20465;-73
2022/11/21 10:16:40;;;;;;;2.30;2.10;;;8.10;80.80;;;7.54;71.30;96886.22;5014744;28;20779;-75
2022/11/21 10:19:25;;;;;;;3.60;2.27;;;8.00;80.90;;;7.48;71.59;96902.22;5033977;28;20766;-69
2022/11/21 10:22:30;;;;;;;3.23;2.00;;;7.80;81.00;;;7.78;71.47;96893.41;5028583;28;20458;-68
2022/11/21 10:25:10;;;;;;;2.13;1.93;;;7.90;81.10;;;7.99;70.25;96885.09;5018181;28;20843;-69
2022/11/21 10:27:46;;;;;;;3.30;2.30;;;8.10;81.00;;;8.33;69.60;96886.28;5033105;28;20464;-71
2022/11/21 10:30:16;;;;;;;3.00;2.30;;;8.30;80.80;;;8.19;69.47;96882.97;5015144;28;20584;-69
2022/11/21 10:32:46;;;;;;;3.93;2.43;;;8.50;80.40;;;8.12;69.79;96879.56;5017628;28;20472;-70
2022/11/21 10:35:17;;;;;;;2.93;2.40;;;8.40;80.50;;;7.90;70.08;96868.47;5026809;28;20462;-68
2022/11/21 10:37:50;;;;;;;3.00;2.00;;;8.20;80.30;;;7.93;69.39;96882.25;5018220;28;20466;-69
2022/11/21 10:40:30;;;;;;;4.30;2.13;;;8.20;80.10;;;7.85;70.15;96885.25;5016387;28;20462;-69
2022/11/21 10:45:15;;;;;;;3.93;2.13;;;8.10;80.40;;;7.67;70.63;96877.22;5013015;28;21573;-69
2022/11/21 10:45:52;;;;;;;3.27;2.00;;;8.00;80.50;;;7.73;70.88;96873.63;5015125;28;20458;-69
2022/11/21 10:48:20;;;;;;;4.33;2.30;;;8.00;80.80;;;7.98;69.59;96878.06;5016377;28;20834;-69
2022/11/21 10:51:22;;;;;;;2.27;1.70;;;8.00;80.40;;;8.24;69.33;96876.91;5022760;28;20977;-69
2022/11/21 10:56:51;;;;;;;2.70;1.50;;;8.50;79.50;;;8.02;67.49;96879.25;5033155;28;20963;-69
2022/11/21 10:59:25;;;;;;;2.37;2.10;;;8.40;79.00;;;8.16;67.54;96880.72;5018111;28;20462;-69